Time;durP1;ratioP1;P1;durP2;ratioP2;P2;SDS_P1;SDS_P2;PMS_P1;PMS_P2;Temp;Humidity;BMP_temperature;BMP_pressure;BME280_temperature;BME280_humidity;BME280_pressure;Samples;Min_cycle;Max_cycle;Signal;HPM_P1;HPM_P2
2024/04/19 00:01:19;;;;;;;3.85;3.15;;;3.20;99.90;;;;;;5423383;26;20040;-36
2024/04/19 00:03:45;;;;;;;5.05;3.42;;;3.30;99.90;;;;;;5420652;26;19995;-39
2024/04/19 00:06:10;;;;;;;4.50;3.75;;;3.30;99.90;;;;;;5440089;26;19999;-37
2024/04/19 00:08:36;;;;;;;5.05;3.63;;;3.20;99.90;;;;;;5416372;26;20002;-38
2024/04/19 00:11:02;;;;;;;12.20;7.15;;;3.30;99.90;;;;;;5428249;26;20500;-35
2024/04/19 00:13:28;;;;;;;5.18;4.20;;;3.30;99.90;;;;;;5429252;26;19999;-34
2024/04/19 00:15:56;;;;;;;4.72;3.90;;;3.30;99.90;;;;;;5423281;26;20462;-36
2024/04/19 00:18:23;;;;;;;;;;;3.30;99.90;;;;;;5430204;26;20416;-37
2024/04/19 00:20:48;;;;;;;2.78;2.58;;;3.30;99.90;;;;;;5429021;26;20349;-36
2024/04/19 00:23:14;;;;;;;3.88;3.47;;;3.40;99.90;;;;;;5426601;26;20010;-35
2024/04/19 00:25:39;;;;;;;3.85;3.38;;;3.40;99.90;;;;;;5417774;26;20018;-34
2024/04/19 00:28:05;;;;;;;4.40;3.47;;;3.40;99.90;;;;;;5416403;26;20942;-34
2024/04/19 00:30:31;;;;;;;4.53;3.60;;;3.40;99.90;;;;;;5426708;26;20007;-35
2024/04/19 00:32:56;;;;;;;6.47;3.90;;;3.40;99.90;;;;;;5431663;26;19991;-37
2024/04/19 00:35:22;;;;;;;4.72;4.22;;;3.40;99.90;;;;;;5424508;26;19990;-36
2024/04/19 00:37:47;;;;;;;3.75;3.20;;;3.40;99.90;;;;;;5427563;26;20107;-36
2024/04/19 00:40:13;;;;;;;5.43;4.00;;;3.40;99.90;;;;;;5428927;26;20476;-36
2024/04/19 00:42:39;;;;;;;4.85;4.05;;;3.40;99.90;;;;;;5424826;26;20019;-34
2024/04/19 00:45:25;;;;;;;5.05;3.88;;;3.40;99.90;;;;;;5428564;26;20328;-33
2024/04/19 00:47:51;;;;;;;6.90;4.25;;;3.40;99.90;;;;;;5429471;26;19999;-35
2024/04/19 00:50:16;;;;;;;5.30;4.07;;;3.40;99.90;;;;;;5420175;26;20637;-38
2024/04/19 00:52:43;;;;;;;4.80;4.35;;;3.40;99.90;;;;;;5427118;26;19995;-35
2024/04/19 00:55:08;;;;;;;4.22;3.53;;;3.40;99.90;;;;;;5428198;26;20002;-32
2024/04/19 00:57:34;;;;;;;5.78;4.53;;;3.40;99.90;;;;;;5426517;26;20075;-37
2024/04/19 01:00:01;;;;;;;5.32;4.22;;;3.40;99.90;;;;;;5428557;26;20468;-35
2024/04/19 01:02:27;;;;;;;6.60;4.47;;;3.50;99.90;;;;;;5422291;26;20003;-38
2024/04/19 01:04:53;;;;;;;6.38;4.57;;;3.50;99.90;;;;;;5433670;26;20075;-36
2024/04/19 01:07:18;;;;;;;7.22;4.43;;;3.50;99.90;;;;;;5430437;26;20066;-39
2024/04/19 01:09:44;;;;;;;4.97;3.67;;;3.50;99.90;;;;;;5412302;26;20107;-33
2024/04/19 01:12:10;;;;;;;5.30;3.97;;;3.50;99.90;;;;;;5414823;26;19994;-35
2024/04/19 01:14:35;;;;;;;6.53;4.70;;;3.50;99.90;;;;;;5424508;26;19999;-37
2024/04/19 01:17:01;;;;;;;6.72;4.45;;;3.50;99.90;;;;;;5424221;26;20013;-36
2024/04/19 01:19:26;;;;;;;8.05;5.35;;;3.40;99.90;;;;;;5423282;26;20036;-41
2024/04/19 01:21:52;;;;;;;7.80;3.88;;;3.40;99.90;;;;;;5415083;26;20451;-38
2024/04/19 01:24:31;;;;;;;7.13;5.47;;;3.40;99.90;;;;;;5416951;26;20732;-38
2024/04/19 01:26:56;;;;;;;6.50;5.00;;;3.40;99.90;;;;;;5429089;26;20023;-40
2024/04/19 01:29:22;;;;;;;5.63;4.10;;;3.40;99.90;;;;;;5413786;26;20003;-39
2024/04/19 01:31:47;;;;;;;7.72;5.15;;;3.40;99.90;;;;;;5410293;26;19996;-39
2024/04/19 01:34:13;;;;;;;6.82;4.60;;;3.40;99.90;;;;;;5387924;26;20046;-38
2024/04/19 01:36:39;;;;;;;6.35;4.75;;;3.40;99.90;;;;;;5384965;26;20463;-41
2024/04/19 01:39:04;;;;;;;6.95;4.78;;;3.40;99.90;;;;;;5391146;26;20020;-38
2024/04/19 01:41:31;;;;;;;8.85;5.88;;;3.30;99.90;;;;;;5376142;26;20003;-40
2024/04/19 01:43:58;;;;;;;8.07;5.22;;;3.30;99.90;;;;;;5385078;26;20007;-39
2024/04/19 01:46:23;;;;;;;5.72;4.88;;;3.30;99.90;;;;;;5395396;26;20011;-41
2024/04/19 01:48:49;;;;;;;5.47;4.13;;;3.20;99.90;;;;;;5391523;26;20868;-39
2024/04/19 01:51:15;;;;;;;5.32;4.22;;;3.20;99.90;;;;;;5393971;26;20000;-40
2024/04/19 01:53:40;;;;;;;8.63;4.72;;;3.00;99.90;;;;;;5390086;26;20011;-40
2024/04/19 01:56:06;;;;;;;6.80;5.43;;;3.00;99.90;;;;;;5393056;26;19992;-41
2024/04/19 01:58:31;;;;;;;5.32;4.53;;;3.10;99.90;;;;;;5394156;26;20012;-41
2024/04/19 02:00:57;;;;;;;8.10;4.97;;;3.10;99.90;;;;;;5400512;26;20006;-40
2024/04/19 02:03:23;;;;;;;6.80;5.32;;;3.10;99.90;;;;;;5423323;26;20006;-36
2024/04/19 02:05:48;;;;;;;7.15;4.97;;;3.10;99.90;;;;;;5410182;26;20438;-40
2024/04/19 02:08:14;;;;;;;7.20;5.30;;;3.00;99.90;;;;;;5414661;26;20011;-38
2024/04/19 02:10:40;;;;;;;9.20;5.13;;;3.00;99.90;;;;;;5425100;26;19995;-40
2024/04/19 02:13:05;;;;;;;6.18;5.57;;;3.00;99.90;;;;;;5426011;26;20068;-40
2024/04/19 02:15:31;;;;;;;7.35;5.45;;;3.00;99.90;;;;;;5424858;26;20014;-39
2024/04/19 02:17:56;;;;;;;7.93;5.45;;;3.10;99.90;;;;;;5425138;26;20011;-40
2024/04/19 02:20:22;;;;;;;7.22;5.53;;;3.10;99.90;;;;;;5424342;26;22361;-40
2024/04/19 02:22:47;;;;;;;8.10;5.63;;;3.10;99.90;;;;;;5415836;26;20003;-38
2024/04/19 02:25:13;;;;;;;7.70;5.10;;;3.10;99.90;;;;;;5421867;26;20613;-41
2024/04/19 02:33:07;;;;;;;8.35;5.32;;;3.20;99.90;;;;;;5428871;26;20763;-36
2024/04/19 02:35:32;;;;;;;8.15;5.50;;;3.30;99.90;;;;;;5424836;26;20011;-37
2024/04/19 02:37:58;;;;;;;10.27;5.90;;;3.30;99.90;;;;;;5427940;26;20447;-35
2024/04/19 02:40:23;;;;;;;8.80;5.18;;;3.30;99.90;;;;;;5430646;26;20083;-35
2024/04/19 02:42:49;;;;;;;8.68;5.32;;;3.30;99.90;;;;;;5421559;26;19999;-35
2024/04/19 02:45:14;;;;;;;7.35;5.68;;;3.30;99.90;;;;;;5424409;26;19999;-35
2024/04/19 02:47:40;;;;;;;9.27;5.35;;;3.30;99.90;;;;;;5421934;26;19999;-34
2024/04/19 02:50:06;;;;;;;5.88;4.78;;;3.30;99.90;;;;;;5420529;26;20071;-34
2024/04/19 02:52:31;;;;;;;8.05;5.50;;;3.30;99.90;;;;;;5419306;26;20399;-35
2024/04/19 02:54:57;;;;;;;8.68;5.47;;;3.30;99.90;;;;;;5423408;26;19992;-37
2024/04/19 02:57:22;;;;;;;8.93;6.10;;;3.30;99.90;;;;;;5431254;26;20376;-34
2024/04/19 02:59:48;;;;;;;9.38;6.50;;;3.30;99.90;;;;;;5431077;26;20083;-34
2024/04/19 03:02:14;;;;;;;10.05;5.70;;;3.30;99.90;;;;;;5413873;26;20527;-34
2024/04/19 03:04:39;;;;;;;10.60;6.57;;;3.30;99.90;;;;;;5426377;26;20014;-38
2024/04/19 03:07:05;;;;;;;8.82;6.15;;;3.30;99.90;;;;;;5422702;26;20596;-36
2024/04/19 03:09:31;;;;;;;10.57;7.50;;;3.30;99.90;;;;;;5420965;26;20006;-35
2024/04/19 03:11:56;;;;;;;11.45;6.85;;;3.40;99.90;;;;;;5424617;26;19995;-34
2024/04/19 03:14:22;;;;;;;7.75;5.85;;;3.30;99.90;;;;;;5426012;26;20011;-38
2024/04/19 03:16:51;;;;;;;8.13;5.97;;;3.30;99.90;;;;;;5424263;26;20476;-34
2024/04/19 03:19:16;;;;;;;8.95;6.30;;;3.30;99.90;;;;;;5421230;26;20081;-35
2024/04/19 03:21:42;;;;;;;9.20;6.07;;;3.30;99.90;;;;;;5421598;26;20013;-33
2024/04/19 03:24:07;;;;;;;9.93;6.45;;;3.40;99.90;;;;;;5425653;26;20034;-35
2024/04/19 03:26:34;;;;;;;9.15;6.15;;;3.30;99.90;;;;;;5419629;26;20004;-33
2024/04/19 03:28:59;;;;;;;5.07;4.57;;;3.40;99.90;;;;;;5427535;26;19994;-35
2024/04/19 03:31:25;;;;;;;11.35;7.05;;;3.30;99.90;;;;;;5421043;26;20592;-37
2024/04/19 03:33:51;;;;;;;10.27;6.43;;;3.40;99.90;;;;;;5422088;26;20167;-39
2024/04/19 03:36:16;;;;;;;7.32;5.53;;;3.40;99.90;;;;;;5421842;26;20456;-40
2024/04/19 03:38:42;;;;;;;10.23;6.68;;;3.40;99.90;;;;;;5424077;26;20072;-42
2024/04/19 03:41:07;;;;;;;6.32;4.43;;;3.30;99.90;;;;;;5423646;26;19998;-35
2024/04/19 03:43:40;;;;;;;12.90;5.45;;;3.40;99.90;;;;;;5419034;26;20028;-40
2024/04/19 03:46:06;;;;;;;4.93;3.97;;;3.40;99.90;;;;;;5422931;26;20236;-36
2024/04/19 03:48:31;;;;;;;11.82;6.95;;;3.40;99.90;;;;;;5428075;26;20006;-37
2024/04/19 03:50:57;;;;;;;10.65;6.57;;;3.40;99.90;;;;;;5427264;26;20552;-33
2024/04/19 03:53:22;;;;;;;12.90;6.78;;;3.40;99.90;;;;;;5426643;26;20468;-38
2024/04/19 03:55:48;;;;;;;9.80;6.50;;;3.40;99.90;;;;;;5426307;26;20050;-35
2024/04/19 03:58:14;;;;;;;5.97;4.18;;;3.40;99.90;;;;;;5423870;26;20003;-33
2024/04/19 04:00:39;;;;;;;11.43;6.90;;;3.40;99.90;;;;;;5421015;26;20610;-36
2024/04/19 04:03:06;;;;;;;15.68;5.78;;;3.40;99.90;;;;;;5429634;26;20013;-39
2024/04/19 04:05:33;;;;;;;8.90;5.80;;;3.40;99.90;;;;;;5414952;26;20010;-39
2024/04/19 04:07:58;;;;;;;8.07;5.30;;;3.50;99.90;;;;;;5420817;26;20010;-40
2024/04/19 04:10:24;;;;;;;11.30;7.20;;;3.40;99.90;;;;;;5430469;26;20507;-39
2024/04/19 04:12:50;;;;;;;10.13;5.85;;;3.40;99.90;;;;;;5430437;26;19998;-39
2024/04/19 04:15:15;;;;;;;12.15;7.55;;;3.40;99.90;;;;;;5432510;26;20035;-39
2024/04/19 04:17:41;;;;;;;10.85;6.45;;;3.40;99.90;;;;;;5421156;26;20042;-40
2024/04/19 04:20:07;;;;;;;11.90;5.60;;;3.40;99.90;;;;;;5423455;26;19999;-38
2024/04/19 04:22:33;;;;;;;8.73;5.22;;;3.40;99.90;;;;;;5429357;26;19999;-40
2024/04/19 04:24:59;;;;;;;7.65;4.65;;;3.40;99.90;;;;;;5429172;26;20458;-41
2024/04/19 04:27:24;;;;;;;10.75;6.85;;;3.30;99.90;;;;;;5424417;26;20009;-42
2024/04/19 04:29:50;;;;;;;7.85;5.30;;;3.30;99.90;;;;;;5425873;26;20017;-41
2024/04/19 04:32:15;;;;;;;10.23;5.82;;;3.30;99.90;;;;;;5424970;26;19999;-38
2024/04/19 04:34:41;;;;;;;10.65;6.03;;;3.30;99.90;;;;;;5413674;26;19991;-41
2024/04/19 04:37:06;;;;;;;11.13;6.63;;;3.30;99.90;;;;;;5430964;26;20011;-40
2024/04/19 04:39:35;;;;;;;11.55;6.10;;;3.40;99.90;;;;;;5365795;21;20018;-74
2024/04/19 04:42:01;;;;;;;10.60;6.55;;;3.40;99.90;;;;;;5299888;26;20071;-74
2024/04/19 04:44:36;;;;;;;11.05;6.03;;;3.40;99.90;;;;;;5270604;27;19997;-74
2024/04/19 04:47:02;;;;;;;14.68;7.05;;;3.40;99.90;;;;;;5301584;26;20002;-75
2024/04/19 04:49:28;;;;;;;9.85;6.63;;;3.40;99.90;;;;;;5297045;26;20491;-76
2024/04/19 04:51:53;;;;;;;8.13;6.15;;;3.50;99.90;;;;;;5265672;27;20001;-75
2024/04/19 04:54:19;;;;;;;9.48;5.25;;;3.50;99.90;;;;;;5271655;26;20001;-76
2024/04/19 04:56:45;;;;;;;11.18;6.88;;;3.50;99.90;;;;;;5306836;26;20013;-75
2024/04/19 04:59:11;;;;;;;9.38;6.45;;;3.60;99.90;;;;;;5318653;26;20642;-75
2024/04/19 05:01:36;;;;;;;3.45;2.88;;;3.60;99.90;;;;;;5304808;26;20017;-75
2024/04/19 05:04:02;;;;;;;10.80;6.60;;;3.60;99.90;;;;;;5302095;27;20557;-74
2024/04/19 05:06:27;;;;;;;8.55;6.38;;;3.60;99.90;;;;;;5305217;26;20017;-76
2024/04/19 05:08:53;;;;;;;6.53;4.38;;;3.70;99.90;;;;;;5309503;26;20016;-75
2024/04/19 05:11:20;;;;;;;2.45;2.25;;;3.70;99.90;;;;;;5306407;26;19994;-74
2024/04/19 05:13:45;;;;;;;10.30;5.70;;;3.70;99.90;;;;;;5303330;26;20060;-74
2024/04/19 05:16:11;;;;;;;7.00;4.60;;;3.80;99.90;;;;;;5300171;27;20346;-75
2024/04/19 05:18:36;;;;;;;5.50;4.97;;;3.80;99.90;;;;;;5300807;27;20053;-74
2024/04/19 05:21:02;;;;;;;4.85;3.95;;;3.80;99.90;;;;;;5272876;27;20009;-74
2024/04/19 05:23:28;;;;;;;13.38;5.80;;;3.80;99.90;;;;;;5305954;26;20002;-75
2024/04/19 05:25:54;;;;;;;4.45;2.88;;;3.90;99.90;;;;;;5260417;27;20005;-74
2024/04/19 05:28:21;;;;;;;7.28;5.32;;;3.90;99.90;;;;;;5279965;27;20013;-74
2024/04/19 05:30:47;;;;;;;8.17;5.33;;;4.00;99.90;;;;;;5304515;26;20010;-75
2024/04/19 05:33:13;;;;;;;1.85;1.73;;;4.00;99.90;;;;;;5300664;27;20020;-75
2024/04/19 05:35:48;;;;;;;9.25;5.88;;;4.00;99.90;;;;;;5276552;27;20006;-75
2024/04/19 05:41:29;;;;;;;6.90;5.00;;;4.10;99.90;;;;;;5209101;27;20055;-75
2024/04/19 05:43:55;;;;;;;6.70;4.40;;;4.10;99.90;;;;;;5260365;27;19998;-76
2024/04/19 05:46:21;;;;;;;8.88;4.25;;;4.20;99.90;;;;;;5259693;27;19999;-74
2024/04/19 05:48:46;;;;;;;5.13;4.28;;;4.20;99.90;;;;;;5258622;27;20250;-74
2024/04/19 05:51:12;;;;;;;8.13;4.50;;;4.20;99.90;;;;;;5236724;27;20003;-74
2024/04/19 05:53:38;;;;;;;7.00;4.70;;;4.20;99.90;;;;;;5259152;27;20448;-74
2024/04/19 05:56:03;;;;;;;6.90;3.95;;;4.20;99.90;;;;;;5259674;27;20042;-74
2024/04/19 05:58:29;;;;;;;7.93;5.00;;;4.30;99.90;;;;;;5244768;27;20022;-74
2024/04/19 06:00:55;;;;;;;10.05;6.88;;;4.30;99.90;;;;;;5253454;27;20002;-74
2024/04/19 06:03:22;;;;;;;7.63;4.63;;;4.30;99.90;;;;;;5257049;27;20057;-74
2024/04/19 06:05:47;;;;;;;9.60;5.53;;;4.30;99.90;;;;;;5248293;27;20021;-74
2024/04/19 06:08:13;;;;;;;6.03;4.35;;;4.30;99.90;;;;;;5251907;27;20026;-74
2024/04/19 06:10:40;;;;;;;7.97;4.88;;;4.40;99.90;;;;;;5244049;27;20580;-74
2024/04/19 06:13:05;;;;;;;5.85;3.88;;;4.30;99.90;;;;;;5280675;27;19999;-74
2024/04/19 06:15:31;;;;;;;8.95;5.15;;;4.40;99.90;;;;;;5246000;27;20687;-74
2024/04/19 06:17:57;;;;;;;7.82;4.75;;;4.40;99.90;;;;;;5251250;27;20002;-75
2024/04/19 06:20:22;;;;;;;6.20;4.07;;;4.40;99.90;;;;;;5251799;27;20002;-73
2024/04/19 06:22:48;;;;;;;9.48;5.75;;;4.50;99.90;;;;;;5243073;27;20042;-74
2024/04/19 06:25:14;;;;;;;4.70;3.47;;;4.50;99.90;;;;;;5247729;27;20072;-74
2024/04/19 06:27:40;;;;;;;4.90;3.85;;;4.50;99.90;;;;;;5248619;27;20018;-74
2024/04/19 06:30:06;;;;;;;7.18;4.88;;;4.50;99.90;;;;;;5254002;27;21048;-74
2024/04/19 06:32:31;;;;;;;8.20;5.10;;;4.60;99.90;;;;;;5239909;27;20073;-74
2024/04/19 06:34:57;;;;;;;10.80;5.82;;;4.60;99.90;;;;;;5248548;27;20039;-74
2024/04/19 06:37:24;;;;;;;7.63;4.90;;;4.60;99.90;;;;;;5247567;27;20694;-74
2024/04/19 06:39:49;;;;;;;9.95;6.55;;;4.70;99.90;;;;;;5256174;27;20500;-74
2024/04/19 06:42:15;;;;;;;8.20;4.95;;;4.70;99.90;;;;;;5255887;27;20006;-74
2024/04/19 06:44:40;;;;;;;10.25;5.63;;;4.70;99.90;;;;;;5251535;27;20039;-74
2024/04/19 06:47:06;;;;;;;9.30;5.60;;;4.80;99.90;;;;;;5259531;27;20125;-74
2024/04/19 06:49:32;;;;;;;7.75;5.13;;;4.80;99.90;;;;;;5255646;27;20010;-74
2024/04/19 06:51:57;;;;;;;11.02;5.82;;;4.80;99.90;;;;;;5251780;27;20006;-74
2024/04/19 06:54:23;;;;;;;7.40;4.30;;;4.90;99.90;;;;;;5255552;27;20551;-74
2024/04/19 06:56:48;;;;;;;6.93;3.85;;;5.00;99.90;;;;;;5238978;27;19999;-74
2024/04/19 06:59:14;;;;;;;9.27;5.10;;;5.00;99.90;;;;;;5249819;27;20712;-74
2024/04/19 07:01:40;;;;;;;4.90;4.10;;;5.00;99.90;;;;;;5260408;27;20022;-74
2024/04/19 07:04:05;;;;;;;9.93;5.28;;;5.00;99.90;;;;;;5251313;27;19998;-75
2024/04/19 07:06:31;;;;;;;8.50;5.20;;;5.10;99.90;;;;;;5238667;27;20003;-74
2024/04/19 07:08:57;;;;;;;3.80;3.33;;;5.10;99.90;;;;;;5246649;27;20014;-75
2024/04/19 07:11:22;;;;;;;11.68;6.57;;;5.20;99.90;;;;;;5256285;27;20002;-76
2024/04/19 07:13:48;;;;;;;8.50;5.57;;;5.20;99.90;;;;;;5255887;27;20006;-74
2024/04/19 07:16:14;;;;;;;7.00;4.57;;;5.30;99.90;;;;;;5243357;27;20006;-75
2024/04/19 07:18:40;;;;;;;7.07;3.80;;;5.40;99.90;;;;;;5250687;27;20357;-75
2024/04/19 07:21:05;;;;;;;12.00;6.65;;;5.40;99.90;;;;;;5252261;27;20018;-76
2024/04/19 07:23:31;;;;;;;9.15;5.57;;;5.50;99.90;;;;;;5247657;27;20732;-75
2024/04/19 07:25:57;;;;;;;9.55;6.00;;;5.50;99.90;;;;;;5253629;27;20010;-75
2024/04/19 07:28:22;;;;;;;10.05;6.03;;;5.60;99.90;;;;;;5244173;27;20014;-75
2024/04/19 07:30:49;;;;;;;7.05;4.82;;;5.60;99.90;;;;;;5276976;27;20025;-75
2024/04/19 07:33:14;;;;;;;7.82;4.40;;;5.60;99.90;;;;;;5252768;27;19998;-75
2024/04/19 07:35:40;;;;;;;6.18;4.28;;;5.70;99.90;;;;;;5247632;27;19995;-75
2024/04/19 07:38:05;;;;;;;9.48;5.28;;;5.70;99.90;;;;;;5253141;27;20061;-75
2024/04/19 07:40:34;;;;;;;9.55;6.30;;;5.80;99.90;;;;;;5290203;26;20021;-74
2024/04/19 07:43:00;;;;;;;8.30;5.13;;;5.80;99.90;;;;;;5285817;27;19998;-74
2024/04/19 07:45:25;;;;;;;7.00;4.53;;;5.90;99.90;;;;;;5281481;27;20049;-75
2024/04/19 07:47:54;;;;;;;7.10;5.07;;;6.00;99.90;;;;;;5263989;27;20008;-75
2024/04/19 07:50:20;;;;;;;7.32;5.13;;;6.00;99.90;;;;;;5295153;26;20008;-74
2024/04/19 07:52:50;;;;;;;7.65;4.43;;;6.00;99.90;;;;;;5289087;26;20002;-74
2024/04/19 07:55:16;;;;;;;5.40;4.07;;;6.00;99.90;;;;;;5290415;26;19998;-75
2024/04/19 07:57:46;;;;;;;9.32;6.57;;;6.00;99.90;;;;;;5280800;27;20452;-75
2024/04/19 08:00:16;;;;;;;9.20;5.60;;;6.00;99.90;;;;;;5286955;27;20010;-75
2024/04/19 08:02:42;;;;;;;4.55;3.33;;;6.00;99.90;;;;;;5280892;27;19998;-75
2024/04/19 08:05:08;;;;;;;7.25;4.95;;;6.10;99.90;;;;;;5264599;27;20012;-75
2024/04/19 08:07:35;;;;;;;7.13;5.00;;;6.10;99.90;;;;;;5291025;26;20002;-75
2024/04/19 08:10:01;;;;;;;6.88;5.05;;;6.10;99.90;;;;;;5294878;26;20005;-74
2024/04/19 08:12:27;;;;;;;5.93;3.85;;;6.20;99.90;;;;;;5288123;26;20434;-74
2024/04/19 08:14:53;;;;;;;7.13;4.97;;;6.20;99.90;;;;;;5291204;27;19998;-75
2024/04/19 08:17:18;;;;;;;5.32;4.00;;;6.30;99.90;;;;;;5293023;27;20235;-75
2024/04/19 08:19:44;;;;;;;6.18;5.32;;;6.20;99.90;;;;;;5251148;27;20005;-74
2024/04/19 08:22:11;;;;;;;5.75;4.10;;;6.20;99.90;;;;;;5294648;27;20328;-74
2024/04/19 08:24:37;;;;;;;6.95;4.63;;;6.10;99.90;;;;;;5278181;27;20010;-74
2024/04/19 08:27:10;;;;;;;5.15;3.92;;;6.20;99.90;;;;;;5251901;27;20010;-74
2024/04/19 08:29:36;;;;;;;7.35;5.97;;;6.30;99.90;;;;;;5261029;27;19998;-74
2024/04/19 08:32:05;;;;;;;6.80;5.03;;;6.30;99.90;;;;;;5284596;27;20002;-75
2024/04/19 08:34:31;;;;;;;5.85;3.72;;;6.40;99.90;;;;;;5253843;27;19997;-74
2024/04/19 08:36:57;;;;;;;5.38;3.85;;;6.50;99.90;;;;;;5272082;27;20251;-74
2024/04/19 08:39:23;;;;;;;6.05;4.22;;;6.60;99.90;;;;;;5285435;27;20017;-74
2024/04/19 08:41:51;;;;;;;6.78;4.53;;;6.70;99.90;;;;;;5282096;27;20006;-74
2024/04/19 08:44:17;;;;;;;3.92;2.70;;;6.90;99.90;;;;;;5269135;27;20378;-75
2024/04/19 08:46:43;;;;;;;6.53;3.97;;;6.80;99.90;;;;;;5290707;26;20343;-75
2024/04/19 08:49:14;;;;;;;7.82;4.25;;;7.00;99.90;;;;;;5282866;26;19997;-75
2024/04/19 08:51:41;;;;;;;4.55;3.85;;;7.00;99.90;;;;;;5289181;27;20478;-75
2024/04/19 08:54:07;;;;;;;6.97;4.82;;;7.00;99.90;;;;;;5305604;26;20001;-75
2024/04/19 08:56:37;;;;;;;6.03;3.42;;;6.90;99.90;;;;;;5299038;26;20355;-75
2024/04/19 08:59:03;;;;;;;4.93;3.70;;;6.90;99.90;;;;;;5273530;27;20403;-75
2024/04/19 09:01:28;;;;;;;6.80;3.97;;;6.90;99.90;;;;;;5248810;27;20006;-75
2024/04/19 09:03:54;;;;;;;7.60;3.63;;;6.80;99.90;;;;;;5252722;27;20049;-74
2024/04/19 09:06:20;;;;;;;6.07;3.60;;;6.70;99.90;;;;;;5293830;27;20001;-74
2024/04/19 09:08:46;;;;;;;4.68;3.92;;;6.70;99.90;;;;;;5266828;27;20009;-74
2024/04/19 09:11:13;;;;;;;3.97;3.05;;;6.70;99.90;;;;;;5262989;27;20002;-74
2024/04/19 09:13:39;;;;;;;4.78;3.35;;;6.90;99.90;;;;;;5277101;27;20006;-74
2024/04/19 09:16:05;;;;;;;3.95;2.67;;;7.00;99.90;;;;;;5294027;27;20058;-74
2024/04/19 09:18:31;;;;;;;5.25;4.13;;;7.10;99.90;;;;;;5287272;27;19994;-75
2024/04/19 09:20:56;;;;;;;5.63;3.72;;;7.20;99.90;;;;;;5287598;27;20001;-74
2024/04/19 09:23:22;;;;;;;7.65;4.10;;;7.30;99.90;;;;;;5279761;27;20007;-75
2024/04/19 09:25:55;;;;;;;7.47;3.58;;;7.50;99.90;;;;;;5298875;27;20503;-74
2024/04/19 09:28:22;;;;;;;4.22;3.28;;;7.70;99.90;;;;;;5288606;27;20006;-74
2024/04/19 09:30:52;;;;;;;2.85;2.40;;;7.70;99.90;;;;;;5286177;26;20013;-74
2024/04/19 09:33:23;;;;;;;6.40;4.07;;;7.80;99.90;;;;;;5283218;27;20005;-74
2024/04/19 09:35:52;;;;;;;4.30;3.30;;;7.80;99.90;;;;;;5284632;27;20018;-74
2024/04/19 09:38:22;;;;;;;6.25;5.03;;;7.80;99.90;;;;;;5289453;27;20006;-74
2024/04/19 09:40:48;;;;;;;5.30;3.72;;;7.30;99.90;;;;;;5273457;27;20005;-74
2024/04/19 09:43:15;;;;;;;4.30;3.53;;;7.40;99.90;;;;;;5291540;27;20009;-74
2024/04/19 09:45:47;;;;;;;3.97;3.40;;;7.30;99.90;;;;;;5269504;27;20035;-74
2024/04/19 09:48:19;;;;;;;5.53;3.50;;;7.40;99.90;;;;;;5275969;27;20017;-74
2024/04/19 09:50:46;;;;;;;4.10;2.90;;;7.30;99.90;;;;;;5298637;27;20484;-75
2024/04/19 09:53:17;;;;;;;4.57;3.35;;;7.60;99.90;;;;;;5298860;27;20009;-74
2024/04/19 09:56:26;;;;;;;4.60;4.18;;;7.70;99.90;;;;;;5296253;27;20016;-74
2024/04/19 09:58:52;;;;;;;4.57;3.50;;;7.40;99.90;;;;;;5288532;27;20002;-74
2024/04/19 10:01:19;;;;;;;2.80;2.60;;;7.20;99.90;;;;;;5287460;27;19994;-74
2024/04/19 10:03:47;;;;;;;4.38;2.75;;;7.20;99.90;;;;;;5285980;27;20006;-74
2024/04/19 10:06:13;;;;;;;3.97;3.10;;;7.10;99.90;;;;;;5295065;27;20001;-74
2024/04/19 10:08:40;;;;;;;2.85;2.03;;;6.90;99.90;;;;;;5289149;27;20013;-74
2024/04/19 10:11:06;;;;;;;4.97;3.80;;;6.90;99.90;;;;;;5294601;27;20298;-73
2024/04/19 10:13:32;;;;;;;6.32;3.83;;;6.90;99.90;;;;;;5285620;27;20013;-74
2024/04/19 10:16:01;;;;;;;4.03;3.70;;;6.90;99.90;;;;;;5297262;27;20012;-74
2024/04/19 10:18:27;;;;;;;4.15;3.50;;;7.00;99.90;;;;;;5294791;27;20002;-74
2024/04/19 10:20:53;;;;;;;6.00;4.15;;;7.00;99.90;;;;;;5288165;27;20049;-75
2024/04/19 10:23:19;;;;;;;5.88;3.63;;;6.90;99.90;;;;;;5279096;27;20010;-74
2024/04/19 10:25:46;;;;;;;5.30;3.42;;;6.70;99.90;;;;;;5271537;27;19998;-74
2024/04/19 10:28:12;;;;;;;5.40;3.97;;;6.80;99.90;;;;;;5306074;27;20002;-76
2024/04/19 10:30:40;;;;;;;4.60;3.53;;;6.70;99.90;;;;;;5263618;27;20357;-75
2024/04/19 10:33:08;;;;;;;3.22;2.92;;;6.90;99.90;;;;;;5273841;27;20048;-74
2024/04/19 10:35:52;;;;;;;3.08;2.75;;;6.80;99.90;;;;;;5250239;27;19998;-74
2024/04/19 10:38:19;;;;;;;5.05;3.78;;;6.90;99.90;;;;;;5263163;27;20671;-75
2024/04/19 10:40:46;;;;;;;4.55;3.80;;;6.80;99.90;;;;;;5259906;27;19999;-74
2024/04/19 10:43:11;;;;;;;5.18;3.60;;;6.80;99.90;;;;;;5268771;27;20010;-75
2024/04/19 10:45:38;;;;;;;6.15;5.00;;;6.80;99.90;;;;;;5282340;27;20002;-75
2024/04/19 10:48:06;;;;;;;5.78;4.97;;;6.70;99.90;;;;;;5267957;27;20174;-75
2024/04/19 10:50:33;;;;;;;7.38;5.63;;;6.70;99.90;;;;;;5279640;27;20006;-76
2024/04/19 10:52:58;;;;;;;6.35;4.28;;;6.50;99.90;;;;;;5258854;27;20010;-74
2024/04/19 10:55:27;;;;;;;8.55;5.57;;;6.60;99.90;;;;;;5267776;27;20002;-74
2024/04/19 10:57:54;;;;;;;5.80;3.90;;;6.50;99.90;;;;;;5266132;27;19999;-74
2024/04/19 11:00:19;;;;;;;6.43;5.40;;;6.50;99.90;;;;;;5261583;27;20009;-75
2024/04/19 11:02:45;;;;;;;4.25;3.80;;;6.50;99.90;;;;;;5258555;27;20002;-75
2024/04/19 11:05:11;;;;;;;6.63;4.40;;;6.50;99.90;;;;;;5266089;27;20003;-75
2024/04/19 11:07:38;;;;;;;3.22;2.90;;;6.50;99.90;;;;;;5274873;27;20013;-75
2024/04/19 11:10:05;;;;;;;6.93;6.07;;;6.40;99.90;;;;;;5272529;27;20017;-75
2024/04/19 11:12:31;;;;;;;4.85;4.13;;;6.30;99.90;;;;;;5273881;27;20010;-75
2024/04/19 11:14:59;;;;;;;5.93;4.57;;;6.40;99.90;;;;;;5274985;27;20013;-75
2024/04/19 11:17:25;;;;;;;5.03;3.60;;;6.40;99.90;;;;;;5272786;27;20345;-75
2024/04/19 11:19:51;;;;;;;5.22;3.92;;;6.50;99.90;;;;;;5272064;27;20565;-73
2024/04/19 11:22:17;;;;;;;5.72;4.63;;;6.40;99.90;;;;;;5273910;27;20010;-74
2024/04/19 11:24:42;;;;;;;5.25;4.63;;;6.30;99.90;;;;;;5260090;27;20002;-76
2024/04/19 11:27:08;;;;;;;6.40;5.10;;;6.30;99.90;;;;;;5277095;27;20026;-75
2024/04/19 11:29:35;;;;;;;6.20;4.30;;;6.30;99.90;;;;;;5265519;27;19995;-73
2024/04/19 11:32:05;;;;;;;7.40;5.30;;;6.40;99.90;;;;;;5249666;27;20002;-74
2024/04/19 11:34:31;;;;;;;7.13;5.47;;;6.30;99.90;;;;;;5266078;27;20010;-75
2024/04/19 11:37:04;;;;;;;4.28;2.97;;;6.10;99.90;;;;;;5274319;27;20002;-74
2024/04/19 11:39:34;;;;;;;4.63;3.30;;;6.10;99.90;;;;;;5294947;27;20472;-75
2024/04/19 11:42:00;;;;;;;5.78;5.28;;;6.10;99.90;;;;;;5303645;27;20008;-74
2024/04/19 11:44:26;;;;;;;5.60;5.03;;;6.00;99.90;;;;;;5293003;27;20569;-75
2024/04/19 11:46:53;;;;;;;4.20;3.25;;;6.10;99.90;;;;;;5278768;27;20005;-74
2024/04/19 11:49:18;;;;;;;4.93;3.60;;;6.20;99.90;;;;;;5307625;27;20037;-75
2024/04/19 11:51:48;;;;;;;4.70;3.33;;;6.20;99.90;;;;;;5268279;27;20440;-75
2024/04/19 11:54:15;;;;;;;3.33;2.60;;;6.20;99.90;;;;;;5292036;27;19995;-75
2024/04/19 11:56:41;;;;;;;5.40;4.45;;;6.20;99.90;;;;;;5296578;27;20441;-75
2024/04/19 11:59:07;;;;;;;4.93;3.38;;;6.10;99.90;;;;;;5307018;27;20053;-76
2024/04/19 12:01:32;;;;;;;5.45;4.50;;;6.10;99.90;;;;;;5308004;27;20005;-75
2024/04/19 12:03:58;;;;;;;5.38;2.95;;;6.10;99.90;;;;;;5305374;27;20009;-75
2024/04/19 12:06:24;;;;;;;5.00;3.85;;;6.10;99.90;;;;;;5262932;27;20014;-75
2024/04/19 12:08:50;;;;;;;4.75;3.35;;;5.90;99.90;;;;;;5303443;27;20002;-76
2024/04/19 12:11:16;;;;;;;4.72;3.63;;;5.80;99.90;;;;;;5304113;27;20042;-76
2024/04/19 12:13:46;;;;;;;4.60;3.33;;;5.80;99.90;;;;;;5280414;27;20018;-77
2024/04/19 12:16:12;;;;;;;4.78;3.35;;;5.80;99.90;;;;;;5301024;27;20001;-76
2024/04/19 12:18:38;;;;;;;3.80;3.15;;;5.80;99.90;;;;;;5307730;26;20511;-75
2024/04/19 12:21:04;;;;;;;3.95;3.10;;;5.80;99.90;;;;;;5300248;27;19999;-75
2024/04/19 12:23:29;;;;;;;2.92;2.60;;;5.80;99.90;;;;;;5268421;27;19993;-76
2024/04/19 12:25:55;;;;;;;4.07;3.67;;;5.80;99.90;;;;;;5305171;27;20016;-75
2024/04/19 12:28:24;;;;;;;3.58;3.00;;;5.80;99.90;;;;;;5299567;27;20002;-75
2024/04/19 12:30:51;;;;;;;4.35;3.10;;;5.90;99.90;;;;;;5293352;26;20834;-75
2024/04/19 12:33:17;;;;;;;3.20;2.60;;;6.10;99.90;;;;;;5305373;27;20001;-75
2024/04/19 12:35:43;;;;;;;4.18;3.17;;;6.20;99.90;;;;;;5245241;27;20002;-74
2024/04/19 12:38:09;;;;;;;5.28;4.43;;;6.30;99.90;;;;;;5303862;27;20101;-75
2024/04/19 12:40:35;;;;;;;3.50;2.88;;;6.00;99.90;;;;;;5268670;27;19998;-76
2024/04/19 12:43:01;;;;;;;4.80;3.03;;;6.10;99.90;;;;;;5291246;27;20451;-76
2024/04/19 12:45:27;;;;;;;4.25;3.85;;;6.00;99.90;;;;;;5276563;27;20287;-75
2024/04/19 12:48:05;;;;;;;3.95;3.15;;;6.00;99.90;;;;;;5292637;27;20017;-74
2024/04/19 12:50:35;;;;;;;4.55;4.10;;;5.90;99.90;;;;;;5267786;27;20438;-75
2024/04/19 12:53:01;;;;;;;5.30;4.72;;;5.90;99.90;;;;;;5268018;27;20009;-76
2024/04/19 12:55:27;;;;;;;5.07;4.57;;;5.90;99.90;;;;;;5273284;27;20017;-76
2024/04/19 12:57:53;;;;;;;3.15;2.85;;;5.80;99.90;;;;;;5288690;27;20233;-75
2024/04/19 13:00:19;;;;;;;3.03;2.67;;;5.80;99.90;;;;;;5269341;27;20008;-75